createdAt,value
2022-11-28T00:01:45.045Z,18.63
2022-11-28T00:04:13.504Z,17.17
2022-11-28T00:06:42.913Z,16.85
2022-11-28T00:09:10.264Z,17.42
2022-11-28T00:11:39.379Z,17.30
2022-11-28T00:14:07.684Z,17.38
2022-11-28T00:16:35.741Z,15.07
2022-11-28T00:19:06.002Z,17.25
2022-11-28T00:21:33.855Z,16.38
2022-11-28T00:24:01.953Z,18.23
2022-11-28T00:26:32.099Z,18.05
2022-11-28T00:29:02.236Z,18.25
2022-11-28T00:31:32.363Z,18.08
2022-11-28T00:34:00.121Z,17.08
2022-11-28T00:36:29.488Z,19.15
2022-11-28T00:38:56.886Z,17.80
2022-11-28T00:41:27.206Z,19.85
2022-11-28T00:43:55.268Z,18.08
2022-11-28T00:46:23.845Z,18.73
2022-11-28T00:48:51.670Z,18.65
2022-11-28T00:51:21.272Z,21.88
2022-11-28T00:53:52.089Z,20.92
2022-11-28T00:56:23.463Z,18.45
2022-11-28T00:58:51.350Z,20.58
2022-11-28T01:01:21.624Z,21.65
2022-11-28T01:03:51.367Z,18.88
2022-11-28T01:08:51.603Z,19.88
2022-11-28T01:11:19.584Z,21.08
2022-11-28T01:13:46.979Z,18.38
2022-11-28T01:16:15.022Z,18.48
2022-11-28T01:18:42.694Z,17.27
2022-11-28T01:21:10.658Z,19.17
2022-11-28T01:23:39.499Z,20.98
2022-11-28T01:26:10.101Z,21.90
2022-11-28T01:28:37.456Z,20.55
2022-11-28T01:31:06.165Z,24.35
2022-11-28T01:33:33.677Z,21.90
2022-11-28T01:36:01.687Z,19.60
2022-11-28T01:38:29.603Z,18.35
2022-11-28T01:40:57.043Z,17.10
2022-11-28T01:43:25.913Z,17.80
2022-11-28T01:45:54.140Z,18.97
2022-11-28T01:48:30.987Z,20.73
2022-11-28T01:51:02.397Z,20.10
2022-11-28T01:53:33.066Z,22.17
2022-11-28T01:56:06.577Z,20.45
2022-11-28T01:58:39.117Z,21.58
2022-11-28T02:01:07.310Z,19.73
2022-11-28T02:03:41.254Z,17.08
2022-11-28T02:06:10.015Z,20.52
2022-11-28T02:08:37.415Z,15.73
2022-11-28T02:11:37.833Z,17.65
2022-11-28T02:14:17.254Z,20.33
2022-11-28T02:16:57.277Z,21.35
2022-11-28T02:20:02.736Z,19.20
2022-11-28T02:22:35.795Z,16.75
2022-11-28T02:25:25.726Z,20.10
2022-11-28T02:28:20.784Z,20.95
2022-11-28T02:30:58.063Z,22.42
2022-11-28T02:33:31.955Z,19.38
2022-11-28T02:36:10.812Z,17.65
2022-11-28T02:38:54.639Z,18.47
2022-11-28T02:41:30.903Z,19.25
2022-11-28T02:44:06.815Z,17.17
2022-11-28T02:46:42.936Z,17.80
2022-11-28T02:49:17.025Z,53.08
2022-11-28T02:51:49.257Z,27.88
2022-11-28T02:54:18.446Z,22.77
2022-11-28T02:56:48.007Z,19.23
2022-11-28T02:59:44.565Z,18.83
2022-11-28T03:02:15.811Z,17.40
2022-11-28T03:04:53.262Z,20.65
2022-11-28T03:07:42.098Z,17.83
2022-11-28T03:10:19.596Z,18.57
2022-11-28T03:12:57.324Z,15.75
2022-11-28T03:15:31.988Z,20.05
2022-11-28T03:18:07.931Z,17.33
2022-11-28T03:20:45.382Z,17.40
2022-11-28T03:23:16.738Z,18.48
2022-11-28T03:25:56.310Z,16.58
2022-11-28T03:28:27.211Z,19.38
2022-11-28T03:31:00.174Z,21.35
2022-11-28T03:33:31.735Z,16.40
2022-11-28T03:36:06.201Z,18.05
2022-11-28T03:38:37.882Z,24.33
2022-11-28T03:41:11.104Z,20.83
2022-11-28T03:43:43.239Z,18.08
2022-11-28T03:46:15.946Z,19.17
2022-11-28T03:48:47.832Z,26.08
2022-11-28T03:51:19.161Z,21.65
2022-11-28T03:53:53.577Z,17.05
2022-11-28T03:56:25.160Z,18.00
2022-11-28T03:58:58.232Z,19.90
2022-11-28T04:01:34.408Z,25.45
2022-11-28T04:04:14.520Z,20.30
2022-11-28T04:06:54.505Z,24.90
2022-11-28T04:09:36.258Z,25.67
2022-11-28T04:12:09.915Z,29.30
2022-11-28T04:14:44.487Z,21.63
2022-11-28T04:17:18.116Z,23.13
2022-11-28T04:19:50.891Z,21.98
2022-11-28T04:22:23.908Z,26.98
2022-11-28T04:24:54.934Z,28.35
2022-11-28T04:27:27.213Z,23.88
2022-11-28T04:29:59.027Z,27.27
2022-11-28T04:32:28.928Z,20.70
2022-11-28T04:35:00.028Z,26.70
2022-11-28T04:37:30.527Z,23.63
2022-11-28T04:40:00.179Z,20.88
2022-11-28T04:45:08.838Z,25.80
2022-11-28T04:47:36.353Z,28.27
2022-11-28T04:50:04.471Z,20.90
2022-11-28T04:52:39.264Z,30.05
2022-11-28T04:55:12.237Z,23.42
2022-11-28T04:57:42.787Z,32.45
2022-11-28T05:00:12.908Z,41.30
2022-11-28T05:02:43.600Z,34.42
2022-11-28T05:05:14.015Z,37.85
2022-11-28T05:07:43.000Z,35.55
2022-11-28T05:10:11.859Z,40.38
2022-11-28T05:12:39.490Z,37.63
2022-11-28T05:15:08.146Z,33.10
2022-11-28T05:17:41.745Z,41.03
2022-11-28T05:20:10.382Z,39.45
2022-11-28T05:22:37.750Z,42.47
2022-11-28T05:25:07.373Z,46.08
2022-11-28T05:27:34.827Z,50.80
2022-11-28T05:30:02.210Z,46.95
2022-11-28T05:32:30.048Z,51.55
2022-11-28T05:34:57.431Z,50.97
2022-11-28T05:37:25.553Z,46.78
2022-11-28T05:39:52.897Z,44.90
2022-11-28T05:42:21.787Z,42.85
2022-11-28T05:44:49.166Z,48.63
2022-11-28T05:47:16.554Z,43.88
2022-11-28T05:49:44.141Z,43.80
2022-11-28T05:52:11.711Z,50.08
2022-11-28T05:54:39.059Z,39.85
2022-11-28T05:57:06.400Z,45.42
2022-11-28T05:59:35.569Z,41.85
2022-11-28T06:02:03.044Z,36.60
2022-11-28T06:04:30.437Z,38.67
2022-11-28T06:06:57.850Z,42.28
2022-11-28T06:09:26.197Z,38.05
2022-11-28T06:11:53.766Z,36.80
2022-11-28T06:14:21.089Z,39.50
2022-11-28T06:16:49.972Z,47.40
2022-11-28T06:19:18.504Z,46.50
2022-11-28T06:21:45.924Z,38.63
2022-11-28T06:24:13.228Z,39.90
2022-11-28T06:26:40.547Z,44.78
2022-11-28T06:29:07.895Z,39.67
2022-11-28T06:31:35.416Z,42.17
2022-11-28T06:34:04.786Z,44.92
2022-11-28T06:36:32.688Z,48.15
2022-11-28T06:39:00.021Z,43.40
2022-11-28T06:41:27.850Z,46.15
2022-11-28T06:43:55.961Z,140.77
2022-11-28T06:46:24.113Z,91.72
2022-11-28T06:48:52.335Z,60.03
2022-11-28T06:51:21.616Z,56.65
2022-11-28T06:53:49.878Z,55.13
2022-11-28T06:56:19.660Z,51.38
2022-11-28T07:01:16.498Z,41.40
2022-11-28T07:03:44.228Z,43.47
2022-11-28T07:06:13.646Z,58.00
2022-11-28T07:08:42.875Z,53.15
2022-11-28T07:11:12.571Z,46.50
2022-11-28T07:16:08.578Z,47.25
2022-11-28T07:18:35.971Z,41.25
2022-11-28T07:21:03.593Z,44.35
2022-11-28T07:23:31.269Z,44.22
2022-11-28T07:26:00.972Z,44.17
2022-11-28T07:31:00.413Z,41.35
2022-11-28T07:33:27.890Z,38.45
2022-11-28T07:35:55.360Z,39.35
2022-11-28T07:38:22.733Z,41.10
2022-11-28T07:40:50.193Z,40.95
2022-11-28T07:43:19.060Z,39.40
2022-11-28T07:46:00.127Z,42.37
2022-11-28T07:48:28.142Z,39.38
2022-11-28T07:50:55.604Z,40.35
2022-11-28T07:53:23.016Z,42.13
2022-11-28T07:55:50.352Z,36.65
2022-11-28T07:58:19.132Z,37.88
2022-11-28T08:00:46.469Z,39.37
2022-11-28T08:03:14.025Z,46.47
2022-11-28T08:05:41.390Z,35.72
2022-11-28T08:08:08.839Z,36.85
2022-11-28T08:10:36.249Z,36.78
2022-11-28T08:13:04.044Z,34.55
2022-11-28T08:15:33.351Z,37.03
2022-11-28T08:18:00.729Z,37.55
2022-11-28T08:20:28.071Z,36.70
2022-11-28T08:22:55.436Z,35.40
2022-11-28T08:25:22.734Z,35.90
2022-11-28T08:27:50.035Z,33.78
2022-11-28T08:30:17.527Z,33.20
2022-11-28T08:32:46.264Z,36.85
2022-11-28T08:35:14.116Z,34.80
2022-11-28T08:37:41.487Z,32.40
2022-11-28T08:40:09.547Z,31.75
2022-11-28T08:42:37.205Z,31.88
2022-11-28T08:45:05.386Z,36.38
2022-11-28T08:47:32.876Z,33.03
2022-11-28T08:50:01.676Z,33.42
2022-11-28T08:52:29.611Z,29.63
2022-11-28T08:54:57.131Z,32.63
2022-11-28T08:57:24.498Z,31.63
2022-11-28T08:59:51.855Z,30.52
2022-11-28T09:02:24.484Z,28.65
2022-11-28T09:04:53.227Z,30.77
2022-11-28T09:07:22.256Z,30.60
2022-11-28T09:09:49.801Z,30.58
2022-11-28T09:12:17.743Z,28.27
2022-11-28T09:14:45.054Z,29.65
2022-11-28T09:17:12.403Z,28.42
2022-11-28T09:19:40.568Z,32.90
2022-11-28T09:22:08.605Z,29.65
2022-11-28T09:24:37.587Z,29.88
2022-11-28T09:27:04.946Z,30.15
2022-11-28T09:29:32.277Z,46.22
2022-11-28T09:31:59.732Z,42.50
2022-11-28T09:34:27.072Z,44.45
2022-11-28T09:36:54.425Z,47.50
2022-11-28T09:39:21.787Z,37.63
2022-11-28T09:42:05.051Z,40.45
2022-11-28T09:44:41.550Z,37.22
2022-11-28T09:47:17.301Z,35.95
2022-11-28T09:49:49.124Z,32.50
2022-11-28T09:52:26.830Z,29.77
2022-11-28T09:55:05.116Z,33.95
2022-11-28T09:57:39.200Z,32.10
2022-11-28T10:00:12.551Z,32.63
2022-11-28T10:02:47.743Z,30.05
2022-11-28T10:05:24.681Z,33.65
2022-11-28T10:08:09.809Z,34.38
2022-11-28T10:10:44.540Z,31.67
2022-11-28T10:13:18.532Z,30.38
2022-11-28T10:15:52.648Z,31.85
2022-11-28T10:18:38.071Z,33.78
2022-11-28T10:21:18.289Z,35.75
2022-11-28T10:23:48.161Z,32.33
2022-11-28T10:26:21.264Z,29.83
2022-11-28T10:28:53.921Z,34.65
2022-11-28T10:31:31.403Z,30.50
2022-11-28T10:34:06.151Z,33.50
2022-11-28T10:36:44.869Z,33.47
2022-11-28T10:39:13.293Z,31.80
2022-11-28T10:41:46.512Z,31.27
2022-11-28T10:44:23.691Z,36.38
2022-11-28T10:46:59.840Z,30.38
2022-11-28T10:49:35.825Z,36.20
2022-11-28T10:52:12.228Z,34.88
2022-11-28T10:55:04.135Z,51.22
2022-11-28T10:57:38.676Z,39.80
2022-11-28T11:00:11.899Z,34.92
2022-11-28T11:02:44.556Z,33.30
2022-11-28T11:05:15.222Z,37.20
2022-11-28T11:07:49.303Z,37.63
2022-11-28T11:10:19.221Z,36.72
2022-11-28T11:12:47.159Z,33.42
2022-11-28T11:15:19.721Z,38.50
2022-11-28T11:17:47.543Z,37.58
2022-11-28T11:20:34.578Z,38.30
2022-11-28T11:23:11.929Z,36.53
2022-11-28T11:25:47.482Z,35.33
2022-11-28T11:28:32.536Z,37.92
2022-11-28T11:31:04.308Z,32.20
2022-11-28T11:33:35.170Z,37.08
2022-11-28T11:36:04.664Z,36.28
2022-11-28T11:38:37.945Z,37.47
2022-11-28T11:41:27.670Z,39.17
2022-11-28T11:43:55.236Z,36.85
2022-11-28T11:46:24.080Z,30.55
2022-11-28T11:48:53.359Z,34.53
2022-11-28T11:51:26.000Z,33.72
2022-11-28T11:54:04.962Z,35.05
2022-11-28T11:56:36.409Z,31.75
2022-11-28T11:59:11.126Z,34.17
2022-11-28T12:01:42.471Z,41.45
2022-11-28T12:04:43.324Z,37.35
2022-11-28T12:07:10.991Z,29.88
2022-11-28T12:09:43.580Z,31.67
2022-11-28T12:12:16.304Z,32.40
2022-11-28T12:14:44.771Z,31.27
2022-11-28T12:17:47.892Z,33.47
2022-11-28T12:20:35.714Z,37.20
2022-11-28T12:23:17.007Z,31.20
2022-11-28T12:25:49.163Z,26.52
2022-11-28T12:28:29.580Z,28.85
2022-11-28T12:31:09.277Z,29.30
2022-11-28T12:36:19.564Z,30.08
2022-11-28T12:38:59.631Z,32.50
2022-11-28T12:41:46.936Z,31.13
2022-11-28T12:44:27.129Z,31.55
2022-11-28T12:47:03.604Z,28.05
2022-11-28T12:49:42.999Z,32.30
2022-11-28T12:52:25.247Z,28.63
2022-11-28T12:55:05.769Z,33.20
2022-11-28T12:57:42.948Z,33.42
2022-11-28T13:00:14.684Z,29.27
2022-11-28T13:02:56.134Z,34.65
2022-11-28T13:05:41.300Z,32.35
2022-11-28T13:08:30.091Z,30.00
2022-11-28T13:11:06.483Z,31.63
2022-11-28T13:13:39.927Z,31.50
2022-11-28T13:16:16.903Z,27.15
2022-11-28T13:18:49.400Z,25.60
2022-11-28T13:21:28.150Z,29.85
2022-11-28T13:24:03.855Z,30.13
2022-11-28T13:26:43.776Z,30.10
2022-11-28T13:29:23.937Z,28.60
2022-11-28T13:32:01.764Z,26.60
2022-11-28T13:34:30.456Z,37.03
2022-11-28T13:39:54.825Z,29.45
2022-11-28T13:45:31.652Z,24.52
2022-11-28T13:48:01.176Z,27.08
2022-11-28T13:50:36.757Z,25.75
2022-11-28T13:53:21.633Z,27.05
2022-11-28T13:55:51.251Z,25.60
2022-11-28T13:58:28.341Z,22.92
2022-11-28T14:01:08.300Z,26.00
2022-11-28T14:06:07.219Z,24.02
2022-11-28T14:08:39.197Z,23.52
2022-11-28T14:11:27.603Z,20.98
2022-11-28T14:14:24.560Z,21.30
2022-11-28T14:17:09.803Z,22.45
2022-11-28T14:19:51.133Z,26.80
2022-11-28T14:22:32.048Z,26.50
2022-11-28T14:25:08.789Z,23.15
2022-11-28T14:27:40.121Z,26.77
2022-11-28T14:30:24.440Z,23.95
2022-11-28T14:32:59.928Z,22.45
2022-11-28T14:36:04.083Z,25.98
2022-11-28T14:38:45.348Z,24.65
2022-11-28T14:41:15.866Z,25.42
2022-11-28T14:43:45.505Z,23.35
2022-11-28T14:46:29.227Z,19.60
2022-11-28T14:49:17.301Z,21.95
2022-11-28T14:52:30.692Z,25.60
2022-11-28T14:54:55.485Z,21.52
2022-11-28T14:57:27.054Z,22.92
2022-11-28T14:59:57.098Z,21.33
2022-11-28T15:03:01.655Z,20.65
2022-11-28T15:05:39.877Z,20.25
2022-11-28T15:08:28.528Z,18.10
2022-11-28T15:11:16.704Z,23.00
2022-11-28T15:14:00.299Z,20.83
2022-11-28T15:16:30.782Z,20.67
2022-11-28T15:19:02.630Z,19.20
2022-11-28T15:21:30.722Z,19.90
2022-11-28T15:23:58.333Z,19.63
2022-11-28T15:26:28.568Z,20.38
2022-11-28T15:29:10.474Z,16.98
2022-11-28T15:31:38.180Z,18.45
2022-11-28T15:34:09.214Z,18.25
2022-11-28T15:36:38.584Z,22.25
2022-11-28T15:39:25.729Z,19.73
2022-11-28T15:41:54.824Z,21.10
2022-11-28T15:44:24.225Z,22.25
2022-11-28T15:46:51.969Z,15.95
2022-11-28T15:49:28.975Z,17.15
2022-11-28T15:51:58.358Z,17.55
2022-11-28T15:54:34.393Z,18.52
2022-11-28T15:57:02.538Z,20.20
2022-11-28T15:59:31.695Z,20.00
2022-11-28T16:02:02.994Z,20.77
2022-11-28T16:04:31.499Z,18.02
2022-11-28T16:07:01.052Z,16.23
2022-11-28T16:09:32.585Z,17.75
2022-11-28T16:12:01.716Z,16.25
2022-11-28T16:14:33.088Z,14.32
2022-11-28T16:17:03.376Z,20.92
2022-11-28T16:19:34.418Z,18.92
2022-11-28T16:22:03.980Z,20.38
2022-11-28T16:27:06.539Z,16.30
2022-11-28T16:29:37.044Z,17.20
2022-11-28T16:32:08.856Z,19.52
2022-11-28T16:34:47.382Z,21.27
2022-11-28T16:37:20.281Z,18.73
2022-11-28T16:40:04.519Z,18.45
2022-11-28T16:42:33.904Z,19.30
2022-11-28T16:45:10.403Z,16.92
2022-11-28T16:47:38.240Z,17.65
2022-11-28T16:50:17.786Z,20.38
2022-11-28T16:52:53.245Z,16.92
2022-11-28T16:55:39.450Z,15.90
2022-11-28T16:58:12.612Z,17.00
2022-11-28T17:00:44.164Z,16.17
2022-11-28T17:03:37.630Z,19.80
2022-11-28T17:06:05.646Z,16.25
2022-11-28T17:08:33.199Z,17.13
2022-11-28T17:11:00.732Z,18.00
2022-11-28T17:13:28.742Z,16.27
2022-11-28T17:15:57.912Z,15.35
2022-11-28T17:18:25.871Z,16.13
2022-11-28T17:20:53.958Z,20.00
2022-11-28T17:23:21.600Z,15.18
2022-11-28T17:25:49.335Z,17.48
2022-11-28T17:28:22.360Z,16.23
2022-11-28T17:30:54.792Z,15.40
2022-11-28T17:33:24.922Z,16.25
2022-11-28T17:35:54.553Z,19.77
2022-11-28T17:38:22.396Z,16.85
2022-11-28T17:40:50.157Z,15.85
2022-11-28T17:43:18.918Z,15.13
2022-11-28T17:45:47.426Z,16.20
2022-11-28T17:48:15.688Z,17.50
2022-11-28T17:50:47.095Z,16.42
2022-11-28T17:53:20.276Z,19.27
2022-11-28T17:55:49.374Z,17.80
2022-11-28T17:58:19.922Z,17.52
2022-11-28T18:00:48.628Z,16.10
2022-11-28T18:03:18.054Z,16.02
2022-11-28T18:05:49.544Z,13.93
2022-11-28T18:08:22.076Z,17.67
2022-11-28T18:10:50.028Z,18.02
2022-11-28T18:13:18.605Z,17.58
2022-11-28T18:15:48.311Z,16.25
2022-11-28T18:18:15.922Z,17.13
2022-11-28T18:20:43.371Z,18.48
2022-11-28T18:23:12.915Z,16.73
2022-11-28T18:25:42.518Z,17.00
2022-11-28T18:28:17.246Z,16.85
2022-11-28T18:30:48.682Z,15.35
2022-11-28T18:33:17.154Z,15.05
2022-11-28T18:35:44.819Z,16.88
2022-11-28T18:38:14.243Z,16.27
2022-11-28T18:40:41.809Z,15.50
2022-11-28T18:43:09.228Z,14.77
2022-11-28T18:45:36.983Z,17.05
2022-11-28T18:48:05.226Z,13.98
2022-11-28T18:50:35.531Z,15.57
2022-11-28T18:53:03.173Z,16.65
2022-11-28T18:55:32.255Z,16.00
2022-11-28T18:57:59.705Z,14.30
2022-11-28T19:00:27.146Z,19.42
2022-11-28T19:02:55.190Z,16.13
2022-11-28T19:05:23.536Z,17.90
2022-11-28T19:07:51.348Z,14.85
2022-11-28T19:10:19.185Z,16.40
2022-11-28T19:12:48.402Z,19.02
2022-11-28T19:15:16.072Z,15.10
2022-11-28T19:17:43.559Z,16.05
2022-11-28T19:20:12.143Z,14.60
2022-11-28T19:22:39.703Z,13.32
2022-11-28T19:25:08.567Z,17.55
2022-11-28T19:27:36.045Z,17.20
2022-11-28T19:30:06.230Z,16.05
2022-11-28T19:32:34.777Z,17.33
2022-11-28T19:35:02.270Z,15.63
2022-11-28T19:37:29.903Z,16.95
2022-11-28T19:40:02.198Z,15.27
2022-11-28T19:42:30.112Z,14.55
2022-11-28T19:44:58.477Z,17.48
2022-11-28T19:47:27.629Z,16.70
2022-11-28T19:49:55.254Z,14.55
2022-11-28T19:52:22.739Z,15.57
2022-11-28T19:54:50.561Z,16.50
2022-11-28T19:57:18.482Z,14.50
2022-11-28T19:59:46.266Z,15.63
2022-11-28T20:02:13.984Z,14.27
2022-11-28T20:04:42.904Z,16.23
2022-11-28T20:07:10.700Z,14.60
2022-11-28T20:09:38.345Z,16.80
2022-11-28T20:12:06.477Z,12.65
2022-11-28T20:14:34.866Z,12.52
2022-11-28T20:17:03.291Z,14.07
2022-11-28T20:19:31.503Z,13.68
2022-11-28T20:22:00.318Z,13.75
2022-11-28T20:24:27.699Z,14.73
2022-11-28T20:26:55.112Z,14.93
2022-11-28T20:29:24.060Z,14.05
2022-11-28T20:31:51.429Z,13.23
2022-11-28T20:34:19.427Z,15.40
2022-11-28T20:36:52.058Z,14.93
2022-11-28T20:39:21.895Z,17.58
2022-11-28T20:41:49.731Z,15.60
2022-11-28T20:44:17.899Z,12.75
2022-11-28T20:46:45.231Z,15.32
2022-11-28T20:49:13.861Z,15.68
2022-11-28T20:51:41.777Z,13.43
2022-11-28T20:54:11.658Z,13.13
2022-11-28T20:59:27.944Z,14.32
2022-11-28T21:01:55.342Z,14.02
2022-11-28T21:04:22.795Z,14.05
2022-11-28T21:06:50.344Z,14.02
2022-11-28T21:09:17.752Z,14.20
2022-11-28T21:12:01.798Z,13.45
2022-11-28T21:14:29.306Z,13.88
2022-11-28T21:16:57.539Z,14.68
2022-11-28T21:19:25.018Z,15.30
2022-11-28T21:21:52.389Z,13.77
2022-11-28T21:24:20.432Z,14.63
2022-11-28T21:26:53.994Z,15.55
2022-11-28T21:29:23.082Z,15.85
2022-11-28T21:31:50.535Z,15.85
2022-11-28T21:34:17.968Z,16.50
2022-11-28T21:36:45.410Z,16.25
2022-11-28T21:39:14.574Z,15.93
2022-11-28T21:41:41.941Z,13.45
2022-11-28T21:44:10.980Z,15.77
2022-11-28T21:46:38.358Z,14.45
2022-11-28T21:49:05.995Z,15.55
2022-11-28T21:51:38.212Z,13.63
2022-11-28T21:54:06.497Z,14.10
2022-11-28T21:56:34.241Z,13.80
2022-11-28T21:59:01.748Z,13.88
2022-11-28T22:01:31.076Z,13.80
2022-11-28T22:04:02.333Z,14.80
2022-11-28T22:06:30.106Z,13.75
2022-11-28T22:08:57.704Z,13.98
2022-11-28T22:11:26.038Z,16.45
2022-11-28T22:13:53.347Z,13.73
2022-11-28T22:16:23.592Z,13.90
2022-11-28T22:18:54.940Z,14.73
2022-11-28T22:21:50.726Z,11.60
2022-11-28T22:24:10.371Z,14.48
2022-11-28T22:26:38.449Z,13.15
2022-11-28T22:29:05.810Z,15.48
2022-11-28T22:31:33.855Z,16.27
2022-11-28T22:34:02.670Z,13.63
2022-11-28T22:36:30.428Z,14.10
2022-11-28T22:38:58.890Z,14.30
2022-11-28T22:41:29.258Z,13.43
2022-11-28T22:43:59.736Z,11.70
2022-11-28T22:46:28.179Z,13.95
2022-11-28T22:48:55.700Z,13.52
2022-11-28T22:51:26.534Z,11.57
2022-11-28T22:53:54.796Z,12.25
2022-11-28T22:56:24.751Z,13.18
2022-11-28T22:58:52.904Z,11.88
2022-11-28T23:01:23.063Z,12.20
2022-11-28T23:03:50.891Z,11.65
2022-11-28T23:06:20.632Z,11.52
2022-11-28T23:08:56.776Z,14.05
2022-11-28T23:11:28.834Z,12.43
2022-11-28T23:13:56.419Z,14.15
2022-11-28T23:16:26.230Z,12.15
2022-11-28T23:18:56.647Z,14.23
2022-11-28T23:23:52.099Z,12.80
2022-11-28T23:26:24.718Z,14.25
2022-11-28T23:28:54.115Z,13.85
2022-11-28T23:31:24.307Z,12.15
2022-11-28T23:33:52.508Z,13.80
2022-11-28T23:36:21.845Z,13.23
2022-11-28T23:38:51.632Z,14.27
2022-11-28T23:41:19.348Z,13.23
2022-11-28T23:43:49.266Z,14.43
2022-11-28T23:46:18.960Z,13.02
2022-11-28T23:48:47.017Z,12.57
2022-11-28T23:51:17.108Z,13.85
2022-11-28T23:53:44.699Z,13.80
2022-11-28T23:56:14.026Z,14.82
2022-11-28T23:58:42.417Z,12.60
